Time;durP1;ratioP1;P1;durP2;ratioP2;P2;SDS_P1;SDS_P2;PMS_P1;PMS_P2;Temp;Humidity;BMP_temperature;BMP_pressure;BME280_temperature;BME280_humidity;BME280_pressure;Samples;Min_cycle;Max_cycle;Signal;HPM_P1;HPM_P2
2022/09/23 00:01:52;;;;;;;3.35;3.15;;;5.50;99.90;;;;;;5022964;28;20029;-32
2022/09/23 00:04:19;;;;;;;2.67;2.47;;;5.40;99.90;;;;;;5029812;28;20025;-31
2022/09/23 00:06:44;;;;;;;3.38;3.08;;;5.30;99.90;;;;;;5030798;28;20048;-37
2022/09/23 00:09:10;;;;;;;2.75;2.55;;;5.30;99.90;;;;;;5028327;28;20029;-36
2022/09/23 00:11:36;;;;;;;3.13;2.83;;;5.30;99.90;;;;;;5025673;28;20028;-36
2022/09/23 00:14:02;;;;;;;4.00;3.13;;;5.40;99.90;;;;;;5028859;28;20040;-38
2022/09/23 00:16:33;;;;;;;8.63;3.28;;;5.40;99.90;;;;;;5029075;28;20040;-37
2022/09/23 00:19:00;;;;;;;3.03;2.78;;;5.30;99.90;;;;;;5027124;28;20111;-38
2022/09/23 00:21:26;;;;;;;4.30;3.15;;;5.20;99.90;;;;;;5031859;28;20024;-34
2022/09/23 00:23:52;;;;;;;4.20;3.13;;;5.20;99.90;;;;;;5026344;28;20041;-31
2022/09/23 00:26:19;;;;;;;3.35;3.00;;;5.20;99.90;;;;;;5026667;28;20032;-35
2022/09/23 00:28:45;;;;;;;2.75;2.55;;;5.20;99.90;;;;;;5028644;28;20102;-36
2022/09/23 00:31:17;;;;;;;2.90;2.70;;;5.20;99.90;;;;;;5024933;28;20037;-29
2022/09/23 00:33:43;;;;;;;3.10;2.80;;;5.20;99.90;;;;;;5013228;28;20148;-38
2022/09/23 00:36:14;;;;;;;3.28;2.92;;;5.20;99.90;;;;;;5014703;28;20386;-37
2022/09/23 00:38:40;;;;;;;2.55;2.30;;;5.20;99.90;;;;;;5012158;28;20582;-37
2022/09/23 00:41:06;;;;;;;4.05;2.95;;;5.10;99.90;;;;;;5014419;28;22583;-39
2022/09/23 00:43:41;;;;;;;2.92;2.72;;;5.10;99.90;;;;;;5013798;28;20048;-36
2022/09/23 00:46:09;;;;;;;7.25;2.90;;;5.10;99.90;;;;;;5015172;28;20048;-35
2022/09/23 00:48:37;;;;;;;4.13;2.63;;;5.00;99.90;;;;;;5014612;28;20606;-39
2022/09/23 00:51:05;;;;;;;4.00;2.80;;;5.00;99.90;;;;;;5014305;28;20029;-33
2022/09/23 00:53:31;;;;;;;5.10;2.73;;;4.90;99.90;;;;;;5014018;28;20052;-34
2022/09/23 00:56:03;;;;;;;3.55;3.10;;;4.90;99.90;;;;;;5010923;28;20061;-39
2022/09/23 00:58:31;;;;;;;2.85;2.65;;;4.90;99.90;;;;;;5015043;28;20620;-38
2022/09/23 01:01:01;;;;;;;4.90;3.08;;;4.70;99.90;;;;;;5014497;28;20037;-34
2022/09/23 01:03:27;;;;;;;3.00;2.80;;;4.70;99.90;;;;;;5013962;28;20037;-32
2022/09/23 01:05:53;;;;;;;2.85;2.47;;;4.70;99.90;;;;;;5016394;28;20040;-34
2022/09/23 01:08:19;;;;;;;3.25;2.92;;;4.80;99.90;;;;;;5011818;28;20553;-32
2022/09/23 01:11:17;;;;;;;2.95;2.75;;;4.80;99.90;;;;;;5010035;28;20037;-35
2022/09/23 01:14:12;;;;;;;2.95;2.25;;;4.90;99.90;;;;;;5013554;28;20037;-35
2022/09/23 01:16:57;;;;;;;2.85;2.35;;;4.80;99.90;;;;;;5008084;28;20045;-33
2022/09/23 01:19:22;;;;;;;2.55;2.35;;;4.80;99.90;;;;;;5013844;28;20191;-36
2022/09/23 01:22:34;;;;;;;2.92;2.72;;;4.70;99.90;;;;;;5015158;28;20186;-33
2022/09/23 01:25:27;;;;;;;2.60;2.40;;;4.70;99.90;;;;;;4970094;28;20038;-35
2022/09/23 01:27:55;;;;;;;4.53;2.30;;;4.70;99.90;;;;;;5012332;28;20647;-33
2022/09/23 01:31:14;;;;;;;2.50;2.30;;;4.60;99.90;;;;;;5015942;28;20040;-34
2022/09/23 01:34:23;;;;;;;7.15;2.17;;;4.30;99.90;;;;;;5012437;28;20040;-32
2022/09/23 01:37:28;;;;;;;2.47;2.28;;;4.30;99.90;;;;;;5015764;28;20033;-35
2022/09/23 01:39:54;;;;;;;2.70;2.50;;;4.40;99.90;;;;;;4974310;28;20049;-33
2022/09/23 01:42:29;;;;;;;2.53;2.33;;;4.40;99.90;;;;;;5012449;28;20029;-36
2022/09/23 01:45:18;;;;;;;2.30;2.10;;;4.30;99.90;;;;;;5017131;28;20056;-36
2022/09/23 01:47:53;;;;;;;1.88;1.77;;;4.30;99.90;;;;;;5003842;28;20042;-33
2022/09/23 01:53:20;;;;;;;2.65;2.35;;;4.30;99.90;;;;;;5014377;28;20041;-33
2022/09/23 01:55:51;;;;;;;3.30;2.00;;;4.30;99.90;;;;;;5012355;28;20040;-33
2022/09/23 01:58:27;;;;;;;2.85;2.55;;;4.30;99.90;;;;;;5010176;28;20171;-32
2022/09/23 02:01:10;;;;;;;2.40;2.20;;;4.20;99.90;;;;;;5012215;28;20055;-34
2022/09/23 02:03:38;;;;;;;2.85;1.70;;;4.30;99.90;;;;;;5013337;28;20026;-36
2022/09/23 02:06:28;;;;;;;3.28;2.35;;;4.30;99.90;;;;;;5012845;28;20049;-34
2022/09/23 02:09:01;;;;;;;2.00;1.90;;;4.30;99.90;;;;;;5013131;28;20111;-32
2022/09/23 02:11:27;;;;;;;2.55;2.42;;;4.30;99.90;;;;;;5013103;28;20049;-35
2022/09/23 02:13:59;;;;;;;2.97;2.58;;;4.30;99.90;;;;;;5013812;28;20033;-33
2022/09/23 02:17:04;;;;;;;2.83;2.03;;;4.30;99.90;;;;;;4988034;28;20056;-32
2022/09/23 02:19:43;;;;;;;3.70;2.40;;;4.20;99.90;;;;;;4969789;28;20046;-35
2022/09/23 02:22:37;;;;;;;3.55;3.13;;;4.20;99.90;;;;;;5008933;28;20046;-32
2022/09/23 02:25:03;;;;;;;3.35;3.05;;;4.10;99.90;;;;;;5008773;28;20505;-32
2022/09/23 02:27:36;;;;;;;4.93;2.80;;;4.10;99.90;;;;;;5009822;28;20030;-34
2022/09/23 02:30:28;;;;;;;3.13;2.78;;;4.10;99.90;;;;;;5012691;28;20129;-34
2022/09/23 02:33:32;;;;;;;3.17;2.22;;;4.10;99.90;;;;;;5002519;28;20087;-35
2022/09/23 02:36:24;;;;;;;3.13;2.83;;;4.10;99.90;;;;;;4960765;28;20402;-33
2022/09/23 02:38:56;;;;;;;4.40;2.47;;;4.10;99.90;;;;;;5006216;28;20827;-33
2022/09/23 02:41:31;;;;;;;2.65;2.40;;;4.10;99.90;;;;;;5022128;28;20402;-32
2022/09/23 02:44:07;;;;;;;2.40;2.25;;;4.10;99.90;;;;;;4994430;28;20029;-37
2022/09/23 02:46:34;;;;;;;2.50;2.30;;;4.00;99.90;;;;;;5006326;28;20025;-32
2022/09/23 02:49:09;;;;;;;2.63;2.42;;;4.00;99.90;;;;;;5008967;28;21760;-35
2022/09/23 02:51:37;;;;;;;2.53;2.33;;;4.00;99.90;;;;;;5022829;28;20045;-32
2022/09/23 02:54:06;;;;;;;2.30;1.98;;;3.90;99.90;;;;;;5007786;28;20093;-36
2022/09/23 02:56:33;;;;;;;3.00;1.70;;;3.80;99.90;;;;;;5008118;28;21505;-32
2022/09/23 02:58:59;;;;;;;2.25;2.05;;;3.50;99.90;;;;;;5009703;28;20030;-32
2022/09/23 03:02:03;;;;;;;2.22;2.03;;;3.50;99.90;;;;;;5005096;28;20034;-34
2022/09/23 03:05:04;;;;;;;1.88;1.73;;;3.40;99.90;;;;;;5011506;28;21032;-34
2022/09/23 03:08:01;;;;;;;1.98;1.88;;;3.30;99.90;;;;;;5006344;28;20029;-32
2022/09/23 03:10:54;;;;;;;2.50;2.30;;;3.40;99.90;;;;;;5016838;28;20136;-34
2022/09/23 03:13:52;;;;;;;2.67;2.47;;;3.50;99.90;;;;;;5032962;28;20483;-37
2022/09/23 03:16:48;;;;;;;2.17;1.97;;;3.60;99.90;;;;;;5014952;28;20235;-31
2022/09/23 03:19:42;;;;;;;2.83;2.42;;;3.60;99.90;;;;;;5032268;28;20583;-34
2022/09/23 03:22:14;;;;;;;2.58;2.30;;;3.70;99.90;;;;;;5019032;28;20030;-34
2022/09/23 03:24:44;;;;;;;3.10;2.78;;;3.60;99.90;;;;;;5014334;28;20017;-36
2022/09/23 03:27:16;;;;;;;4.25;3.08;;;3.50;99.90;;;;;;4997898;28;20033;-34
2022/09/23 03:29:48;;;;;;;5.28;3.22;;;3.30;99.90;;;;;;5012351;28;20034;-32
2022/09/23 03:32:18;;;;;;;8.30;3.72;;;3.40;99.90;;;;;;5012598;28;20041;-32
2022/09/23 03:34:48;;;;;;;6.32;3.45;;;3.40;99.90;;;;;;5014775;28;21761;-34
2022/09/23 03:37:34;;;;;;;3.40;3.00;;;3.40;99.90;;;;;;5013003;28;20398;-33
2022/09/23 03:40:14;;;;;;;3.10;2.80;;;3.40;99.90;;;;;;5008621;28;20034;-40
2022/09/23 03:42:41;;;;;;;2.70;2.50;;;3.40;99.90;;;;;;5027795;28;20522;-35
2022/09/23 03:45:17;;;;;;;2.92;2.65;;;3.30;99.90;;;;;;5025877;28;20060;-35
2022/09/23 03:47:43;;;;;;;2.58;2.38;;;3.30;99.90;;;;;;5015151;28;20041;-35
2022/09/23 03:50:12;;;;;;;3.47;2.80;;;3.40;99.90;;;;;;5008351;28;20034;-32
2022/09/23 03:52:38;;;;;;;4.88;3.35;;;3.40;99.90;;;;;;5010961;28;20033;-36
2022/09/23 03:55:06;;;;;;;4.32;3.22;;;3.40;99.90;;;;;;5011831;28;20337;-34
2022/09/23 03:57:32;;;;;;;4.50;3.30;;;3.40;99.90;;;;;;4994590;28;20080;-32
2022/09/23 03:59:58;;;;;;;3.80;2.90;;;3.30;99.90;;;;;;5028749;28;20681;-33
2022/09/23 04:02:25;;;;;;;2.70;2.50;;;3.00;99.90;;;;;;5009820;28;20072;-35
2022/09/23 04:04:51;;;;;;;3.10;2.40;;;2.90;99.90;;;;;;5014407;28;20033;-34
2022/09/23 04:07:17;;;;;;;4.30;2.45;;;2.70;99.90;;;;;;5010138;28;20159;-33
2022/09/23 04:09:44;;;;;;;3.55;2.40;;;2.60;99.90;;;;;;5010387;28;20038;-37
2022/09/23 04:12:13;;;;;;;7.82;2.67;;;2.60;99.90;;;;;;5007613;28;20125;-34
2022/09/23 04:14:40;;;;;;;2.83;2.58;;;2.70;99.90;;;;;;5007716;28;20092;-35
2022/09/23 04:17:06;;;;;;;5.15;3.17;;;2.80;99.90;;;;;;4994537;28;20021;-33
2022/09/23 04:19:32;;;;;;;4.55;2.65;;;2.90;99.90;;;;;;5004864;28;20038;-35
2022/09/23 04:21:58;;;;;;;2.92;2.45;;;3.00;99.90;;;;;;5026241;28;20029;-32
2022/09/23 04:24:24;;;;;;;2.67;2.47;;;3.00;99.90;;;;;;4995220;28;20030;-36
2022/09/23 04:26:55;;;;;;;3.10;2.10;;;2.80;99.90;;;;;;5012707;28;20022;-33
2022/09/23 04:29:22;;;;;;;2.58;2.33;;;2.80;99.90;;;;;;5010424;28;20273;-34
2022/09/23 04:31:49;;;;;;;2.80;2.20;;;2.80;99.90;;;;;;5011064;28;20419;-34
2022/09/23 04:34:16;;;;;;;2.40;2.20;;;2.80;99.90;;;;;;4991985;28;20030;-32
2022/09/23 04:36:46;;;;;;;2.50;2.30;;;2.80;99.90;;;;;;4998465;28;20500;-32
2022/09/23 04:39:14;;;;;;;4.47;4.05;;;2.90;99.90;;;;;;5029534;28;20033;-36
2022/09/23 04:41:40;;;;;;;3.05;2.85;;;2.70;99.90;;;;;;5013338;28;20232;-37
2022/09/23 04:44:06;;;;;;;2.97;2.78;;;2.70;99.90;;;;;;5010536;28;20142;-33
2022/09/23 04:46:32;;;;;;;4.88;3.13;;;2.80;99.90;;;;;;5007422;28;20026;-33
2022/09/23 04:48:58;;;;;;;5.30;3.15;;;2.80;99.90;;;;;;5014313;28;20120;-34
2022/09/23 04:51:26;;;;;;;5.38;4.00;;;2.70;99.90;;;;;;5007372;28;20123;-34
2022/09/23 04:53:53;;;;;;;7.78;4.43;;;2.70;99.90;;;;;;5012059;28;20045;-33
2022/09/23 04:56:21;;;;;;;7.28;4.43;;;2.70;99.90;;;;;;5011654;28;20048;-33
2022/09/23 04:58:48;;;;;;;5.28;3.28;;;2.70;99.90;;;;;;5011957;28;20065;-32
2022/09/23 05:01:15;;;;;;;4.90;3.28;;;2.70;99.90;;;;;;5009535;28;20048;-34
2022/09/23 05:03:42;;;;;;;2.90;2.45;;;2.70;99.90;;;;;;5016560;28;20055;-34
2022/09/23 05:06:12;;;;;;;4.43;2.80;;;2.70;99.90;;;;;;5015311;28;20033;-32
2022/09/23 05:08:45;;;;;;;2.22;1.90;;;2.60;99.90;;;;;;5017093;28;20040;-34
2022/09/23 05:11:11;;;;;;;2.47;2.28;;;2.40;99.90;;;;;;5013190;28;20030;-37
2022/09/23 05:13:36;;;;;;;2.50;2.30;;;2.10;99.90;;;;;;5016514;28;20459;-33
2022/09/23 05:16:08;;;;;;;3.28;2.60;;;2.20;99.90;;;;;;5015886;28;20038;-35
2022/09/23 05:18:35;;;;;;;2.60;2.40;;;2.20;99.90;;;;;;5014961;28;20036;-36
2022/09/23 05:21:02;;;;;;;2.85;2.65;;;2.10;99.90;;;;;;5014541;28;20029;-34
2022/09/23 05:23:28;;;;;;;5.03;2.47;;;2.20;99.90;;;;;;5012759;28;20075;-37
2022/09/23 05:26:02;;;;;;;2.80;2.60;;;2.30;99.90;;;;;;5014466;28;20457;-36
2022/09/23 05:28:31;;;;;;;2.80;2.60;;;2.20;99.90;;;;;;5015329;28;20032;-35
2022/09/23 05:31:07;;;;;;;3.28;2.97;;;2.30;99.90;;;;;;5012527;28;20045;-33
2022/09/23 05:33:35;;;;;;;3.42;2.85;;;2.30;99.90;;;;;;5012027;28;20026;-32
2022/09/23 05:36:02;;;;;;;2.55;2.35;;;2.40;99.90;;;;;;5011315;28;20030;-36
2022/09/23 05:38:28;;;;;;;4.93;3.00;;;2.50;99.90;;;;;;5024970;28;20711;-32
2022/09/23 05:40:59;;;;;;;4.60;2.83;;;2.50;99.90;;;;;;5012742;28;20065;-35
2022/09/23 05:43:26;;;;;;;3.58;3.03;;;2.50;99.90;;;;;;4994304;28;20034;-33
2022/09/23 05:46:00;;;;;;;4.68;3.25;;;2.60;99.90;;;;;;5019826;28;20378;-34
2022/09/23 05:48:25;;;;;;;5.65;3.25;;;2.70;99.90;;;;;;5009654;28;20033;-35
2022/09/23 05:50:52;;;;;;;2.95;2.65;;;2.70;99.90;;;;;;5016696;28;20375;-33
2022/09/23 05:53:18;;;;;;;2.50;2.10;;;2.70;99.90;;;;;;5012603;28;20025;-37
2022/09/23 05:55:44;;;;;;;2.95;2.75;;;2.70;99.90;;;;;;5013093;28;20044;-37
2022/09/23 05:58:11;;;;;;;2.40;2.20;;;2.60;99.90;;;;;;5016188;28;20020;-35
2022/09/23 06:00:41;;;;;;;2.70;2.50;;;2.60;99.90;;;;;;5007600;28;20038;-37
2022/09/23 06:03:15;;;;;;;4.45;2.95;;;2.60;99.90;;;;;;5008959;28;20029;-35
2022/09/23 06:05:41;;;;;;;3.78;3.35;;;2.70;99.90;;;;;;5008618;28;20456;-37
2022/09/23 06:08:08;;;;;;;3.30;2.78;;;2.80;99.90;;;;;;5013761;28;20030;-33
2022/09/23 06:10:42;;;;;;;3.20;2.83;;;2.70;99.90;;;;;;5014218;28;20029;-38
2022/09/23 06:13:08;;;;;;;4.05;2.95;;;2.70;99.90;;;;;;5004173;28;20057;-36
2022/09/23 06:15:35;;;;;;;6.78;3.85;;;2.70;99.90;;;;;;5011814;28;20427;-34
2022/09/23 06:18:01;;;;;;;5.90;4.07;;;2.80;99.90;;;;;;5008968;28;20033;-34
2022/09/23 06:20:27;;;;;;;5.85;3.88;;;2.90;99.90;;;;;;5015595;28;20030;-35
2022/09/23 06:22:53;;;;;;;6.85;3.53;;;3.00;99.90;;;;;;5009096;28;20044;-36
2022/09/23 06:25:20;;;;;;;5.68;5.00;;;3.10;99.90;;;;;;5008652;28;20550;-32
2022/09/23 06:27:55;;;;;;;7.18;4.40;;;3.20;99.90;;;;;;5010244;28;20084;-34
2022/09/23 06:30:22;;;;;;;5.90;4.13;;;3.30;99.90;;;;;;5008953;28;20057;-35
2022/09/23 06:32:52;;;;;;;4.60;4.18;;;3.50;99.90;;;;;;5035835;28;20494;-33
2022/09/23 06:35:19;;;;;;;8.52;3.92;;;3.60;99.90;;;;;;5033813;28;20030;-32
2022/09/23 06:37:45;;;;;;;6.00;4.30;;;3.70;99.90;;;;;;5033025;28;20026;-33
2022/09/23 06:40:13;;;;;;;4.38;3.90;;;3.80;99.90;;;;;;5033092;28;20087;-32
2022/09/23 06:42:39;;;;;;;7.55;4.25;;;3.90;99.90;;;;;;5026952;28;20257;-34
2022/09/23 06:45:05;;;;;;;7.82;4.90;;;4.00;99.90;;;;;;5032315;28;20035;-33
2022/09/23 06:47:30;;;;;;;6.05;4.80;;;4.10;99.90;;;;;;5032786;28;20529;-35
2022/09/23 06:49:56;;;;;;;6.65;5.22;;;4.10;99.90;;;;;;5028317;28;20033;-32
2022/09/23 06:52:22;;;;;;;8.40;5.43;;;4.30;99.90;;;;;;5033639;28;20493;-32
2022/09/23 06:54:47;;;;;;;9.48;5.38;;;4.30;99.90;;;;;;5026708;28;20397;-36
2022/09/23 06:57:13;;;;;;;9.77;6.13;;;4.40;99.90;;;;;;5030874;28;20045;-33
2022/09/23 06:59:40;;;;;;;7.38;5.93;;;4.50;99.90;;;;;;5031473;28;20071;-32
2022/09/23 07:02:08;;;;;;;8.23;5.78;;;4.50;99.90;;;;;;5018998;28;20038;-33
2022/09/23 07:04:33;;;;;;;9.43;5.90;;;4.50;99.90;;;;;;5026673;28;20505;-33
2022/09/23 07:06:59;;;;;;;8.95;6.65;;;4.60;99.90;;;;;;5015279;28;20140;-36
2022/09/23 07:09:25;;;;;;;8.30;6.20;;;4.70;99.90;;;;;;5015112;28;20037;-33
2022/09/23 07:11:50;;;;;;;6.85;5.93;;;4.80;99.90;;;;;;5016523;28;20076;-36
2022/09/23 07:14:16;;;;;;;8.90;6.72;;;4.90;99.90;;;;;;5020773;28;20569;-32
2022/09/23 07:16:41;;;;;;;9.40;6.05;;;5.00;99.90;;;;;;5014358;28;20324;-35
2022/09/23 07:19:07;;;;;;;9.63;5.88;;;5.00;99.90;;;;;;5015866;28;20036;-34
2022/09/23 07:21:33;;;;;;;11.55;6.85;;;5.10;99.90;;;;;;5017869;28;20029;-36
2022/09/23 07:23:58;;;;;;;10.25;7.78;;;5.20;99.90;;;;;;5020221;28;20037;-35
2022/09/23 07:26:24;;;;;;;10.75;6.93;;;5.30;99.90;;;;;;5018394;28;20041;-33
2022/09/23 07:29:03;;;;;;;9.95;6.38;;;5.40;99.90;;;;;;5018110;28;20065;-36
2022/09/23 07:31:29;;;;;;;8.75;6.65;;;5.50;99.90;;;;;;5028586;28;20167;-33
2022/09/23 07:33:57;;;;;;;12.13;7.05;;;5.70;99.90;;;;;;5034935;28;20037;-34
2022/09/23 07:36:23;;;;;;;8.50;6.25;;;5.80;99.90;;;;;;5033516;28;20061;-33
2022/09/23 07:38:49;;;;;;;13.43;8.18;;;6.00;99.90;;;;;;5015338;28;20095;-38
2022/09/23 07:41:18;;;;;;;13.85;6.68;;;6.20;99.90;;;;;;5032961;28;20029;-34
2022/09/23 07:43:44;;;;;;;13.15;6.93;;;6.50;99.90;;;;;;5049902;28;20045;-34
2022/09/23 07:46:15;;;;;;;7.93;6.85;;;6.70;99.90;;;;;;5031862;28;20037;-34
2022/09/23 07:48:41;;;;;;;5.82;5.13;;;6.90;99.90;;;;;;5038020;28;20045;-35
2022/09/23 07:51:15;;;;;;;9.20;6.63;;;7.20;99.90;;;;;;5034155;28;20515;-35
2022/09/23 07:53:41;;;;;;;11.50;5.90;;;7.30;99.90;;;;;;5032962;28;20087;-33
2022/09/23 07:56:06;;;;;;;10.13;6.63;;;7.50;99.90;;;;;;5033227;28;20025;-34
2022/09/23 07:58:33;;;;;;;9.13;4.82;;;7.80;99.90;;;;;;5034164;28;20866;-34
2022/09/23 08:01:07;;;;;;;8.57;5.40;;;8.00;99.90;;;;;;5028254;28;20036;-34
2022/09/23 08:03:34;;;;;;;9.27;5.78;;;8.20;99.90;;;;;;5013466;28;20045;-35
2022/09/23 08:06:12;;;;;;;8.65;6.95;;;8.40;99.90;;;;;;5012904;28;20491;-34
2022/09/23 08:08:42;;;;;;;7.72;5.22;;;8.50;99.90;;;;;;5014923;28;20025;-34
2022/09/23 08:11:09;;;;;;;5.53;3.72;;;8.70;99.90;;;;;;5012938;28;20491;-32
2022/09/23 08:13:36;;;;;;;11.75;5.82;;;8.90;99.90;;;;;;5014031;28;20044;-35
2022/09/23 08:16:01;;;;;;;6.63;5.50;;;9.10;99.90;;;;;;5012013;28;20049;-36
2022/09/23 08:18:27;;;;;;;6.43;5.20;;;9.20;99.90;;;;;;5017527;28;20025;-33
2022/09/23 08:20:53;;;;;;;6.57;5.25;;;9.40;99.90;;;;;;5015771;28;20108;-32
2022/09/23 08:23:19;;;;;;;8.02;6.15;;;9.60;99.90;;;;;;5018865;28;20434;-32
2022/09/23 08:25:46;;;;;;;6.18;5.40;;;9.80;99.90;;;;;;5011745;28;20043;-36
2022/09/23 08:28:17;;;;;;;6.82;4.75;;;9.90;99.90;;;;;;5023017;28;20033;-38
2022/09/23 08:30:48;;;;;;;6.05;5.03;;;10.00;99.90;;;;;;5013809;28;20425;-32
2022/09/23 08:33:14;;;;;;;3.95;3.55;;;10.10;99.90;;;;;;5015639;28;20142;-36
2022/09/23 08:35:40;;;;;;;5.35;4.68;;;10.10;99.90;;;;;;5016197;28;20033;-36
2022/09/23 08:38:06;;;;;;;4.68;3.72;;;10.00;99.90;;;;;;5014386;28;20165;-33
2022/09/23 08:40:41;;;;;;;7.38;3.95;;;10.10;99.90;;;;;;5016909;28;20035;-33
2022/09/23 08:43:28;;;;;;;5.38;4.63;;;10.20;99.90;;;;;;5013210;28;21207;-32
2022/09/23 08:45:56;;;;;;;6.75;4.78;;;10.60;99.90;;;;;;5013036;28;20029;-35
2022/09/23 08:48:33;;;;;;;6.35;4.55;;;10.90;99.90;;;;;;5014449;28;20075;-35
2022/09/23 08:51:06;;;;;;;5.33;4.50;;;11.10;99.90;;;;;;5017317;28;20502;-34
2022/09/23 08:53:34;;;;;;;8.43;5.10;;;11.10;99.90;;;;;;5015840;28;20029;-35
2022/09/23 08:56:06;;;;;;;6.75;4.35;;;11.20;99.90;;;;;;5012721;28;20160;-33
2022/09/23 08:58:43;;;;;;;5.97;4.60;;;11.60;99.90;;;;;;5011979;28;20080;-34
2022/09/23 09:01:13;;;;;;;6.80;4.32;;;11.80;99.90;;;;;;5018002;28;20087;-33
2022/09/23 09:03:52;;;;;;;6.60;5.00;;;11.90;99.90;;;;;;5012694;28;20144;-36
2022/09/23 09:06:20;;;;;;;6.57;4.45;;;11.90;99.90;;;;;;5014705;28;20111;-34
2022/09/23 09:08:53;;;;;;;7.20;4.70;;;11.90;99.90;;;;;;5013094;28;20120;-35
2022/09/23 09:11:22;;;;;;;6.38;4.35;;;11.90;99.90;;;;;;5012745;28;20120;-32
2022/09/23 09:13:58;;;;;;;5.05;4.55;;;12.20;99.90;;;;;;5027087;28;20025;-37
2022/09/23 09:17:12;;;;;;;5.22;4.13;;;12.20;99.90;;;;;;5012985;28;20022;-36
2022/09/23 09:20:10;;;;;;;5.07;4.05;;;12.30;99.90;;;;;;4948583;28;20419;-35
2022/09/23 09:22:52;;;;;;;6.18;4.57;;;12.60;99.90;;;;;;5032091;28;20037;-35
2022/09/23 09:25:37;;;;;;;7.07;4.10;;;13.00;99.90;;;;;;5012144;28;20108;-32
2022/09/23 09:28:31;;;;;;;3.95;3.50;;;13.30;99.90;;;;;;5016489;28;20063;-31
2022/09/23 09:31:00;;;;;;;4.93;4.40;;;13.10;99.90;;;;;;5022256;28;20121;-32
2022/09/23 09:33:43;;;;;;;7.53;6.80;;;13.10;99.90;;;;;;5019640;28;20041;-36
2022/09/23 09:36:20;;;;;;;5.97;4.90;;;13.20;99.90;;;;;;5021057;28;20111;-32
2022/09/23 09:38:46;;;;;;;6.65;5.00;;;13.30;99.90;;;;;;5016576;28;20033;-32
2022/09/23 09:41:16;;;;;;;5.88;5.28;;;13.50;99.90;;;;;;5016613;28;20064;-35
2022/09/23 09:43:47;;;;;;;7.55;4.80;;;13.60;99.90;;;;;;5016259;28;20263;-32
2022/09/23 09:47:00;;;;;;;4.93;4.20;;;13.60;99.90;;;;;;5017891;28;20045;-32
2022/09/23 09:49:41;;;;;;;5.50;4.43;;;13.70;99.90;;;;;;5013176;28;20041;-32
2022/09/23 09:52:17;;;;;;;4.97;4.53;;;13.90;99.90;;;;;;5011293;28;20427;-33
2022/09/23 09:54:43;;;;;;;9.13;4.68;;;14.20;99.90;;;;;;5012674;28;20483;-34
2022/09/23 09:57:18;;;;;;;7.00;4.85;;;14.10;99.90;;;;;;5018569;28;20028;-33
2022/09/23 09:59:43;;;;;;;7.50;4.68;;;14.20;99.90;;;;;;5015132;28;20041;-33
2022/09/23 10:02:32;;;;;;;4.53;4.13;;;14.60;99.60;;;;;;5001706;28;20026;-38
2022/09/23 10:05:41;;;;;;;4.20;3.80;;;14.60;98.00;;;;;;4996400;28;20030;-32
2022/09/23 10:08:25;;;;;;;5.22;4.72;;;14.40;96.50;;;;;;5009085;28;20037;-32
2022/09/23 10:11:15;;;;;;;5.40;4.57;;;14.50;99.90;;;;;;5015774;28;20030;-32
2022/09/23 10:14:09;;;;;;;4.95;4.00;;;14.90;99.60;;;;;;5007614;28;20441;-32
2022/09/23 10:16:36;;;;;;;13.90;5.35;;;14.80;96.20;;;;;;5016135;28;20033;-34
2022/09/23 10:19:03;;;;;;;5.05;4.13;;;14.90;92.80;;;;;;5012054;28;20033;-32
2022/09/23 10:21:35;;;;;;;4.60;4.07;;;14.90;96.10;;;;;;5014787;28;20110;-36
2022/09/23 10:24:04;;;;;;;4.95;4.18;;;15.00;94.50;;;;;;5012412;28;20056;-36
2022/09/23 10:26:39;;;;;;;6.32;3.80;;;15.00;96.10;;;;;;5012839;28;20112;-34
2022/09/23 10:29:31;;;;;;;5.72;4.03;;;15.10;96.60;;;;;;5012749;28;20103;-36
2022/09/23 10:32:35;;;;;;;6.20;3.53;;;14.80;92.20;;;;;;5016613;28;20414;-32
2022/09/23 10:35:08;;;;;;;4.20;3.75;;;15.00;92.00;;;;;;4960160;28;20404;-32
2022/09/23 10:37:59;;;;;;;5.63;3.75;;;15.40;93.80;;;;;;5014539;28;20099;-32
2022/09/23 10:46:37;;;;;;;3.70;3.35;;;15.70;94.20;;;;;;5020455;28;20045;-32
2022/09/23 10:46:57;;;;;;;2.83;2.63;;;15.80;90.50;;;;;;5022219;28;20041;-34
2022/09/23 10:49:37;;;;;;;3.97;3.00;;;15.80;88.90;;;;;;5021745;28;20032;-35
2022/09/23 10:52:47;;;;;;;6.15;4.13;;;16.00;91.30;;;;;;5023847;28;20035;-32
2022/09/23 10:55:40;;;;;;;4.00;3.60;;;16.00;88.70;;;;;;5023316;28;20048;-33
2022/09/23 10:58:30;;;;;;;5.03;3.58;;;15.80;90.30;;;;;;5021306;28;21395;-31
2022/09/23 11:01:05;;;;;;;3.90;3.22;;;15.90;89.90;;;;;;5022928;28;20041;-35
2022/09/23 11:04:00;;;;;;;4.20;3.55;;;16.00;91.80;;;;;;5033253;28;20041;-32
2022/09/23 11:06:56;;;;;;;3.72;3.33;;;16.20;91.10;;;;;;5029303;28;20037;-32
2022/09/23 11:09:33;;;;;;;3.30;3.00;;;16.50;90.80;;;;;;5029621;28;20047;-33
2022/09/23 11:12:18;;;;;;;4.53;3.47;;;16.50;83.60;;;;;;5031224;28;20029;-34
2022/09/23 11:15:09;;;;;;;3.17;2.88;;;16.40;82.00;;;;;;5029984;28;20056;-34
2022/09/23 11:18:12;;;;;;;3.28;2.80;;;16.40;82.30;;;;;;5034574;28;20024;-32
2022/09/23 11:21:19;;;;;;;3.00;2.75;;;16.30;79.80;;;;;;5033110;28;20047;-32
2022/09/23 11:23:54;;;;;;;3.65;3.00;;;16.10;83.10;;;;;;5037688;28;20021;-32
2022/09/23 11:26:46;;;;;;;3.15;2.85;;;16.30;85.60;;;;;;5031520;28;20063;-33
2022/09/23 11:29:27;;;;;;;4.07;3.08;;;16.50;85.80;;;;;;5033723;28;20505;-33
2022/09/23 11:32:07;;;;;;;4.80;3.42;;;16.40;85.40;;;;;;5040725;28;20045;-32
2022/09/23 11:34:49;;;;;;;4.65;3.67;;;16.40;82.90;;;;;;5035545;28;20033;-32
2022/09/23 11:37:20;;;;;;;4.60;3.63;;;16.30;78.40;;;;;;5035914;28;20158;-34
2022/09/23 11:40:00;;;;;;;4.97;3.63;;;16.40;80.40;;;;;;5035476;28;20028;-34
2022/09/23 11:42:30;;;;;;;5.32;4.00;;;16.50;88.80;;;;;;5038544;28;20244;-32
2022/09/23 11:45:05;;;;;;;4.45;3.78;;;16.70;84.80;;;;;;5036436;28;20388;-33
2022/09/23 11:47:39;;;;;;;4.72;4.22;;;16.60;86.60;;;;;;5040403;28;20040;-32
2022/09/23 11:50:24;;;;;;;5.05;3.97;;;16.70;88.60;;;;;;5035781;28;20029;-33
2022/09/23 11:53:20;;;;;;;5.07;3.88;;;16.90;89.50;;;;;;5038091;28;20040;-33
2022/09/23 11:55:55;;;;;;;3.92;2.90;;;16.90;86.80;;;;;;5012346;28;20097;-32
2022/09/23 11:58:30;;;;;;;6.10;4.28;;;16.60;82.90;;;;;;5032409;28;20043;-33
2022/09/23 12:01:05;;;;;;;6.40;4.53;;;16.70;89.70;;;;;;5032865;28;20030;-32
2022/09/23 12:03:50;;;;;;;7.18;4.20;;;16.60;89.60;;;;;;5035561;28;20054;-36
2022/09/23 12:06:27;;;;;;;4.95;4.43;;;16.70;90.30;;;;;;5038968;28;20544;-33
2022/09/23 12:09:07;;;;;;;5.18;4.50;;;16.80;88.70;;;;;;5034409;28;20029;-32
2022/09/23 12:12:02;;;;;;;4.22;3.83;;;16.90;90.60;;;;;;5037314;28;20021;-36
2022/09/23 12:14:58;;;;;;;6.68;4.47;;;16.80;83.60;;;;;;5013195;28;20042;-32
2022/09/23 12:18:09;;;;;;;5.00;4.22;;;16.80;85.50;;;;;;5034600;28;20493;-32
2022/09/23 12:20:52;;;;;;;5.57;4.22;;;17.00;92.20;;;;;;5031694;28;20071;-32
2022/09/23 12:23:46;;;;;;;7.70;4.40;;;17.10;88.60;;;;;;5037736;28;20390;-31
2022/09/23 12:26:18;;;;;;;4.68;4.20;;;17.20;90.60;;;;;;5034806;28;20037;-35
2022/09/23 12:28:47;;;;;;;6.70;4.80;;;17.10;85.80;;;;;;5039585;28;20075;-32
2022/09/23 12:31:17;;;;;;;5.28;4.47;;;17.30;85.00;;;;;;5040103;28;20527;-32
2022/09/23 12:33:53;;;;;;;4.38;3.65;;;17.20;87.90;;;;;;5035120;28;20390;-34
2022/09/23 12:36:34;;;;;;;5.07;4.25;;;17.10;81.70;;;;;;5032927;28;20033;-33
2022/09/23 12:39:04;;;;;;;6.47;4.88;;;17.00;87.20;;;;;;5037900;28;20103;-32
2022/09/23 12:41:40;;;;;;;5.90;4.43;;;17.10;83.40;;;;;;5039507;28;20025;-32
2022/09/23 12:44:14;;;;;;;5.30;4.20;;;17.00;85.60;;;;;;5032841;28;20033;-34
2022/09/23 12:46:42;;;;;;;5.28;4.30;;;16.80;85.10;;;;;;5035744;28;20029;-35
2022/09/23 12:49:27;;;;;;;5.82;4.28;;;17.00;90.70;;;;;;5034451;28;20326;-33
2022/09/23 12:52:12;;;;;;;5.47;4.22;;;17.10;94.50;;;;;;5034367;28;20052;-34
2022/09/23 12:54:39;;;;;;;6.80;4.18;;;17.00;90.50;;;;;;5036121;28;20111;-40
2022/09/23 12:57:12;;;;;;;6.97;4.25;;;17.00;88.60;;;;;;5035165;28;20482;-37
2022/09/23 12:59:50;;;;;;;6.53;4.38;;;16.90;83.70;;;;;;5036884;28;20029;-31
2022/09/23 13:02:32;;;;;;;5.65;4.45;;;17.00;91.40;;;;;;5022556;28;20121;-35
2022/09/23 13:07:48;;;;;;;5.50;4.10;;;17.00;88.60;;;;;;5017977;28;20551;-32
2022/09/23 13:10:22;;;;;;;4.75;4.00;;;17.00;88.80;;;;;;5011399;28;20033;-34
2022/09/23 13:12:50;;;;;;;4.63;4.03;;;17.00;82.20;;;;;;5013489;28;21128;-34
2022/09/23 13:15:25;;;;;;;4.57;4.17;;;17.10;83.80;;;;;;5013423;28;20045;-34
2022/09/23 13:17:50;;;;;;;5.55;3.53;;;17.10;85.40;;;;;;5016164;28;20882;-32
2022/09/23 13:20:19;;;;;;;8.30;4.45;;;17.30;85.60;;;;;;5015108;28;20034;-32
2022/09/23 13:22:48;;;;;;;5.68;4.00;;;17.50;84.20;;;;;;5015674;28;20483;-33
2022/09/23 13:25:24;;;;;;;5.25;4.03;;;17.70;83.00;;;;;;5013017;28;20030;-34
2022/09/23 13:27:53;;;;;;;4.72;4.15;;;17.50;83.30;;;;;;5021412;28;20030;-33
2022/09/23 13:30:25;;;;;;;5.05;3.78;;;17.40;86.70;;;;;;5014744;28;20037;-32
2022/09/23 13:33:12;;;;;;;5.75;4.28;;;17.30;88.70;;;;;;5025283;28;20037;-33
2022/09/23 13:35:40;;;;;;;;;;;17.50;85.00;;;;;;5025311;28;20046;-34
2022/09/23 13:38:25;;;;;;;5.57;3.55;;;17.70;87.20;;;;;;5038920;28;19960;-37
2022/09/23 13:40:56;;;;;;;5.32;3.90;;;18.00;84.50;;;;;;5031778;28;20037;-33